Time;durP1;ratioP1;P1;durP2;ratioP2;P2;SDS_P1;SDS_P2;PMS_P1;PMS_P2;Temp;Humidity;BMP_temperature;BMP_pressure;BME280_temperature;BME280_humidity;BME280_pressure;Samples;Min_cycle;Max_cycle;Signal;HPM_P1;HPM_P2
2021/03/30 00:00:08;;;;;;;15.52;9.55;;;;;;;14.99;38.90;102320.47;348034;28;1197;-63
2021/03/30 00:00:20;;;;;;;14.63;9.20;;;;;;;14.98;39.68;102321.41;348010;28;1177;-63
2021/03/30 00:00:31;;;;;;;15.62;9.38;;;;;;;15.02;39.14;102324.81;348063;28;1134;-63
2021/03/30 00:00:42;;;;;;;16.40;9.32;;;;;;;14.99;39.43;102323.13;348076;28;1053;-63
2021/03/30 00:00:54;;;;;;;16.67;9.23;;;;;;;14.96;38.72;102320.63;347978;28;1091;-63
2021/03/30 00:01:07;;;;;;;16.73;9.38;;;;;;;14.97;39.64;102318.81;346685;28;1093;-63
2021/03/30 00:01:18;;;;;;;16.30;9.15;;;;;;;14.95;38.58;102325.97;347215;28;1319;-63
2021/03/30 00:01:47;;;;;;;16.38;9.75;;;;;;;14.97;39.05;102332.09;346879;28;33949;-63
2021/03/30 00:01:59;;;;;;;16.40;9.82;;;;;;;14.95;38.47;102321.53;348074;28;1077;-65
2021/03/30 00:02:10;;;;;;;16.67;9.93;;;;;;;14.96;39.14;102325.03;348048;28;1165;-64
2021/03/30 00:02:21;;;;;;;17.23;9.70;;;;;;;14.97;39.32;102327.63;348085;28;1077;-63
2021/03/30 00:02:32;;;;;;;16.04;9.20;;;;;;;14.99;38.83;102325.81;348043;28;1070;-63
2021/03/30 00:02:43;;;;;;;16.40;9.10;;;;;;;15.02;39.28;102319.50;348072;28;1098;-62
2021/03/30 00:02:54;;;;;;;16.35;9.45;;;;;;;15.01;38.56;102323.94;348057;28;1014;-63
2021/03/30 00:03:23;;;;;;;17.88;9.88;;;;;;;14.93;39.69;102320.72;347036;28;34023;-64
2021/03/30 00:03:35;;;;;;;17.35;9.80;;;;;;;14.94;38.79;102322.44;348124;28;1138;-63
2021/03/30 00:03:46;;;;;;;19.60;10.10;;;;;;;14.94;39.25;102319.78;348209;28;1084;-63
2021/03/30 00:04:15;;;;;;;18.95;10.27;;;;;;;14.92;38.79;102329.66;347148;28;33300;-64
2021/03/30 00:04:26;;;;;;;18.73;10.38;;;;;;;14.92;38.94;102325.19;348221;28;1053;-64
2021/03/30 00:04:37;;;;;;;18.90;10.25;;;;;;;14.95;39.21;102323.31;348059;28;1154;-64
2021/03/30 00:04:50;;;;;;;18.95;10.55;;;;;;;14.93;39.52;102324.25;348214;28;1175;-63
2021/03/30 00:05:01;;;;;;;18.95;10.40;;;;;;;14.94;39.79;102325.13;348153;28;1267;-63
2021/03/30 00:05:13;;;;;;;18.17;10.05;;;;;;;14.95;38.73;102329.50;348119;28;1065;-63
2021/03/30 00:05:24;;;;;;;17.05;9.45;;;;;;;14.95;39.70;102326.84;348071;28;1151;-63
2021/03/30 00:05:35;;;;;;;16.00;9.43;;;;;;;14.96;39.88;102325.94;348029;28;1080;-63
2021/03/30 00:05:46;;;;;;;16.33;10.10;;;;;;;14.96;39.12;102323.28;347387;28;1924;-63
2021/03/30 00:05:57;;;;;;;19.00;10.25;;;;;;;14.95;39.51;102321.53;348127;28;1114;-63
2021/03/30 00:06:08;;;;;;;19.75;10.25;;;;;;;14.96;38.93;102319.72;346826;28;1497;-63
2021/03/30 00:06:37;;;;;;;17.63;10.20;;;;;;;14.97;39.01;102326.78;345597;28;33992;-63
2021/03/30 00:06:49;;;;;;;17.13;10.07;;;;;;;14.93;39.39;102323.38;346603;28;1748;-65
2021/03/30 00:07:00;;;;;;;16.80;9.60;;;;;;;14.91;39.02;102323.44;347721;28;1757;-63
2021/03/30 00:07:11;;;;;;;17.73;9.57;;;;;;;14.89;39.13;102320.00;346350;28;1188;-64
2021/03/30 00:07:22;;;;;;;18.55;9.98;;;;;;;14.89;39.97;102319.09;346654;28;1133;-63
2021/03/30 00:07:34;;;;;;;19.33;10.15;;;;;;;14.89;39.30;102324.41;346647;28;1153;-64
2021/03/30 00:07:45;;;;;;;19.48;10.45;;;;;;;14.92;38.78;102326.97;346700;28;1122;-63
2021/03/30 00:07:56;;;;;;;20.05;10.48;;;;;;;14.93;39.91;102321.59;346742;28;1153;-64
2021/03/30 00:08:07;;;;;;;19.25;10.40;;;;;;;14.92;38.86;102329.66;346669;28;1076;-63
2021/03/30 00:08:18;;;;;;;18.40;10.57;;;;;;;14.90;39.29;102318.19;346589;28;1077;-64
2021/03/30 00:08:30;;;;;;;17.38;10.68;;;;;;;14.92;39.78;102324.31;346689;28;1093;-64
2021/03/30 00:08:41;;;;;;;16.05;10.27;;;;;;;14.91;38.94;102323.44;346715;28;1114;-64
2021/03/30 00:09:10;;;;;;;18.25;10.50;;;;;;;14.91;38.87;102319.91;345589;28;33191;-64
2021/03/30 00:09:21;;;;;;;19.77;10.88;;;;;;;14.90;39.48;102326.16;346795;28;1262;-64
2021/03/30 00:09:32;;;;;;;18.80;10.70;;;;;;;14.89;39.24;102319.09;346783;28;1258;-64
2021/03/30 00:09:43;;;;;;;19.35;10.90;;;;;;;14.88;39.33;102320.06;346730;28;1197;-64
2021/03/30 00:09:54;;;;;;;17.88;10.50;;;;;;;14.89;39.79;102319.09;346722;28;1069;-63
2021/03/30 00:10:08;;;;;;;18.67;10.50;;;;;;;14.88;38.98;102322.72;346727;28;1030;-63
2021/03/30 00:10:31;;;;;;;17.42;10.30;;;;;;;14.85;38.98;102323.69;346012;28;23067;-64
2021/03/30 00:10:44;;;;;;;19.75;10.95;;;;;;;14.87;39.79;102323.63;344424;28;71387;-64
2021/03/30 00:10:56;;;;;;;19.35;10.57;;;;;;;14.82;38.52;102318.47;346779;28;1167;-64
2021/03/30 00:11:07;;;;;;;18.45;10.50;;;;;;;14.79;39.46;102323.94;346623;28;1073;-63
2021/03/30 00:11:18;;;;;;;18.00;10.54;;;;;;;14.70;37.93;102325.16;346833;28;1171;-64
2021/03/30 00:11:29;;;;;;;18.30;10.43;;;;;;;14.73;39.69;102329.50;346820;28;1070;-63
2021/03/30 00:11:41;;;;;;;19.42;10.45;;;;;;;14.67;39.31;102324.41;346827;28;1093;-64
2021/03/30 00:11:52;;;;;;;19.15;10.43;;;;;;;14.64;38.24;102325.38;346829;28;2172;-64
2021/03/30 00:12:04;;;;;;;20.63;10.95;;;;;;;14.63;39.65;102317.47;346726;28;1176;-64
2021/03/30 00:12:15;;;;;;;21.67;11.05;;;;;;;14.66;39.03;102327.97;346787;28;1140;-63
2021/03/30 00:12:26;;;;;;;20.40;10.48;;;;;;;14.66;38.67;102323.56;346848;28;1077;-64
2021/03/30 00:12:38;;;;;;;18.55;10.00;;;;;;;14.66;39.48;102325.31;346823;28;1161;-63
2021/03/30 00:12:49;;;;;;;17.60;9.82;;;;;;;14.68;39.74;102320.84;346736;28;2153;-64
2021/03/30 00:13:00;;;;;;;18.52;10.18;;;;;;;14.71;40.16;102326.91;346633;28;1243;-64
2021/03/30 00:13:11;;;;;;;17.60;10.20;;;;;;;14.72;39.02;102323.28;346814;28;1132;-62
2021/03/30 00:13:23;;;;;;;17.77;10.35;;;;;;;14.70;39.35;102322.50;346845;28;1149;-62
2021/03/30 00:13:34;;;;;;;17.10;10.20;;;;;;;14.70;39.34;102325.16;346821;28;1089;-63
2021/03/30 00:13:45;;;;;;;17.83;10.63;;;;;;;14.72;38.72;102325.97;346824;28;1077;-62
2021/03/30 00:13:57;;;;;;;19.05;10.68;;;;;;;14.72;38.85;102325.09;346659;28;1166;-62
2021/03/30 00:14:08;;;;;;;19.92;10.55;;;;;;;14.73;39.59;102319.72;346717;28;1160;-62
2021/03/30 00:14:19;;;;;;;21.14;10.38;;;;;;;14.78;39.05;102316.00;346800;28;1209;-62
2021/03/30 00:14:30;;;;;;;20.20;10.13;;;;;;;14.79;39.10;102328.41;346845;28;1164;-62
2021/03/30 00:14:41;;;;;;;20.15;10.25;;;;;;;14.80;39.83;102319.50;346741;28;1516;-65
2021/03/30 00:14:53;;;;;;;19.52;10.60;;;;;;;14.75;38.60;102322.31;346685;28;1094;-64
2021/03/30 00:15:06;;;;;;;19.40;10.50;;;;;;;14.77;39.50;102315.16;346736;28;1128;-63
2021/03/30 00:15:17;;;;;;;18.58;10.20;;;;;;;14.75;39.80;102320.53;346681;28;1077;-65
2021/03/30 00:15:28;;;;;;;20.00;10.43;;;;;;;14.71;38.54;102315.38;346681;28;1154;-62
2021/03/30 00:15:40;;;;;;;20.08;10.40;;;;;;;14.77;39.57;102323.13;346710;28;1085;-62
2021/03/30 00:15:51;;;;;;;21.52;10.93;;;;;;;14.70;39.40;102324.28;346627;28;1074;-64
2021/03/30 00:16:02;;;;;;;21.00;11.07;;;;;;;14.67;38.96;102324.41;346710;28;1124;-62
2021/03/30 00:16:13;;;;;;;20.90;10.95;;;;;;;14.64;39.73;102322.72;346859;28;1674;-63
2021/03/30 00:16:25;;;;;;;20.73;10.95;;;;;;;14.61;38.45;102320.16;346742;28;1161;-63
2021/03/30 00:16:36;;;;;;;19.05;10.27;;;;;;;14.63;38.71;102325.44;346895;28;1544;-63
2021/03/30 00:16:47;;;;;;;19.65;10.63;;;;;;;14.65;39.22;102326.28;346667;28;1077;-63
2021/03/30 00:16:58;;;;;;;18.27;10.38;;;;;;;14.69;40.02;102331.41;345822;28;1078;-62
2021/03/30 00:17:09;;;;;;;19.02;10.65;;;;;;;14.70;40.23;102324.28;346738;28;1077;-63
2021/03/30 00:17:21;;;;;;;19.35;10.80;;;;;;;14.70;39.18;102324.28;346673;28;1065;-62
2021/03/30 00:17:50;;;;;;;19.52;11.07;;;;;;;14.67;40.38;102321.75;345653;28;33202;-63
2021/03/30 00:18:01;;;;;;;20.10;11.18;;;;;;;14.71;39.42;102324.25;346694;28;1239;-63
2021/03/30 00:18:12;;;;;;;20.73;11.50;;;;;;;14.70;39.62;102325.16;346680;28;1143;-63
2021/03/30 00:18:23;;;;;;;20.80;11.40;;;;;;;14.69;39.35;102325.22;346717;28;1180;-64
2021/03/30 00:18:35;;;;;;;20.70;11.52;;;;;;;14.70;39.17;102322.50;346644;28;1077;-63
2021/03/30 00:18:46;;;;;;;19.98;11.23;;;;;;;14.68;39.83;102321.69;346677;28;1062;-64
2021/03/30 00:18:57;;;;;;;20.05;11.20;;;;;;;14.72;39.65;102323.28;346743;28;1061;-63
2021/03/30 00:19:08;;;;;;;18.58;10.77;;;;;;;14.73;39.06;102321.53;346807;28;1691;-64
2021/03/30 00:19:19;;;;;;;18.08;10.68;;;;;;;14.74;38.92;102320.56;346766;28;1069;-64
2021/03/30 00:19:31;;;;;;;18.33;10.63;;;;;;;14.74;39.18;102326.78;346770;28;1061;-64
2021/03/30 00:19:42;;;;;;;19.50;11.02;;;;;;;14.73;38.87;102325.03;346794;28;1378;-63
2021/03/30 00:19:53;;;;;;;19.65;10.88;;;;;;;14.71;38.87;102329.56;346803;28;1073;-63
2021/03/30 00:20:14;;;;;;;18.05;10.55;;;;;;;14.73;39.85;102322.38;346820;28;1086;-64
2021/03/30 00:20:26;;;;;;;18.02;10.50;;;;;;;14.71;39.33;102321.59;344329;28;71566;-64
2021/03/30 00:20:37;;;;;;;19.08;10.68;;;;;;;14.75;40.37;102330.28;346770;28;1110;-63
2021/03/30 00:20:49;;;;;;;18.65;10.75;;;;;;;14.73;39.66;102322.38;346612;28;1130;-63
2021/03/30 00:21:00;;;;;;;17.80;10.40;;;;;;;14.76;40.37;102324.91;346651;28;1212;-63
2021/03/30 00:21:11;;;;;;;18.05;10.20;;;;;;;14.78;39.24;102326.66;346717;28;1135;-64
2021/03/30 00:21:22;;;;;;;20.50;10.45;;;;;;;14.80;39.10;102316.84;346590;28;1172;-64
2021/03/30 00:21:33;;;;;;;20.83;10.77;;;;;;;14.77;39.91;102315.16;346595;28;1138;-63
2021/03/30 00:21:44;;;;;;;19.45;10.82;;;;;;;14.77;39.61;102317.81;346641;28;1146;-63
2021/03/30 00:21:56;;;;;;;18.08;10.50;;;;;;;14.78;40.28;102324.00;346669;28;1299;-63
2021/03/30 00:22:07;;;;;;;19.90;10.55;;;;;;;14.75;38.87;102317.88;346635;28;1248;-64
2021/03/30 00:22:18;;;;;;;20.55;10.43;;;;;;;14.76;39.54;102324.06;346505;28;1093;-63
2021/03/30 00:22:29;;;;;;;20.65;10.30;;;;;;;14.75;39.10;102323.19;346691;28;1180;-63
2021/03/30 00:22:41;;;;;;;21.10;10.45;;;;;;;14.75;39.33;102325.88;346669;28;1142;-63
2021/03/30 00:22:52;;;;;;;21.55;10.63;;;;;;;14.73;39.93;102319.72;346773;28;2031;-63
2021/03/30 00:23:03;;;;;;;21.77;10.70;;;;;;;14.71;39.54;102324.25;346642;28;1224;-65
2021/03/30 00:23:15;;;;;;;21.35;10.70;;;;;;;14.74;40.39;102325.91;346567;28;1165;-62
2021/03/30 00:23:26;;;;;;;20.17;10.60;;;;;;;14.73;39.21;102322.38;346667;28;1141;-63
2021/03/30 00:23:37;;;;;;;19.98;10.50;;;;;;;14.74;39.64;102316.13;346668;28;1029;-63
2021/03/30 00:23:49;;;;;;;18.30;10.27;;;;;;;14.73;40.30;102322.38;346660;28;1278;-65
2021/03/30 00:24:00;;;;;;;17.58;10.30;;;;;;;14.71;39.53;102316.28;346602;28;1077;-64
2021/03/30 00:24:11;;;;;;;19.67;10.82;;;;;;;14.76;40.47;102314.28;346523;28;1245;-65
2021/03/30 00:24:22;;;;;;;23.00;10.88;;;;;;;14.75;39.40;102319.66;346628;28;1189;-64
2021/03/30 00:24:33;;;;;;;24.13;10.60;;;;;;;14.77;39.11;102317.81;346649;28;1145;-66
2021/03/30 00:24:45;;;;;;;24.52;10.32;;;;;;;14.75;40.05;102327.63;346713;28;1108;-65
2021/03/30 00:24:56;;;;;;;23.40;10.42;;;;;;;14.73;40.39;102311.75;346566;28;1089;-64
2021/03/30 00:25:11;;;;;;;21.20;10.65;;;;;;;14.74;39.33;102320.56;346563;28;1145;-65
2021/03/30 00:25:22;;;;;;;19.25;10.88;;;;;;;14.76;40.04;102322.25;345075;28;49070;-65
2021/03/30 00:25:33;;;;;;;20.80;11.13;;;;;;;14.76;40.51;102324.91;347709;28;1315;-67
2021/03/30 00:25:44;;;;;;;21.23;11.25;;;;;;;14.78;39.65;102316.00;348113;28;1054;-68
2021/03/30 00:25:56;;;;;;;20.17;10.95;;;;;;;14.76;39.86;102311.59;348039;28;1085;-66
2021/03/30 00:26:07;;;;;;;20.00;10.77;;;;;;;14.78;39.62;102316.00;347935;28;1090;-66
2021/03/30 00:26:19;;;;;;;19.92;10.38;;;;;;;14.78;40.37;102321.34;348054;28;1093;-64
2021/03/30 00:26:34;;;;;;;18.90;10.00;;;;;;;14.78;39.74;102326.66;348193;28;1068;-64
2021/03/30 00:26:45;;;;;;;18.73;9.93;;;;;;;14.74;39.99;102317.91;344508;28;72062;-65
2021/03/30 00:27:15;;;;;;;18.40;10.30;;;;;;;14.76;39.78;102324.06;345581;28;33289;-65
2021/03/30 00:27:26;;;;;;;17.80;10.15;;;;;;;14.73;40.50;102322.38;346651;28;1188;-67
2021/03/30 00:27:37;;;;;;;17.15;10.18;;;;;;;14.69;40.88;102323.44;346683;28;1074;-64
2021/03/30 00:27:48;;;;;;;18.17;10.38;;;;;;;14.67;39.97;102325.28;346751;28;1014;-65
2021/03/30 00:27:59;;;;;;;17.60;10.02;;;;;;;14.68;39.82;102319.03;346637;28;1146;-65
2021/03/30 00:28:10;;;;;;;18.60;9.93;;;;;;;14.67;39.80;102319.97;346634;28;1074;-68
2021/03/30 00:28:22;;;;;;;20.58;10.38;;;;;;;14.66;40.55;102318.25;346697;28;1153;-66
2021/03/30 00:28:33;;;;;;;19.70;10.50;;;;;;;14.66;40.12;102320.00;346678;28;1156;-70
2021/03/30 00:29:04;;;;;;;17.73;9.45;;;;;;;14.59;39.91;102320.22;345729;28;33338;-63
2021/03/30 00:29:15;;;;;;;16.92;9.50;;;;;;;14.58;40.77;102314.97;346802;28;1081;-63
2021/03/30 00:29:26;;;;;;;17.17;9.52;;;;;;;14.55;39.66;102315.97;346767;28;1069;-62
2021/03/30 00:29:43;;;;;;;16.85;9.80;;;;;;;14.52;39.65;102317.84;346792;28;1073;-63
2021/03/30 00:29:55;;;;;;;18.80;10.32;;;;;;;14.52;40.92;102326.72;344424;28;71746;-62
2021/03/30 00:30:09;;;;;;;20.40;10.45;;;;;;;14.52;40.62;102320.50;346812;28;1132;-63
2021/03/30 00:30:21;;;;;;;20.17;10.10;;;;;;;14.50;40.35;102323.25;345898;28;23935;-64
2021/03/30 00:30:33;;;;;;;19.17;9.90;;;;;;;14.51;41.06;102318.81;346742;28;1330;-63
2021/03/30 00:30:44;;;;;;;19.08;10.18;;;;;;;14.52;40.73;102315.19;346759;28;1155;-63
2021/03/30 00:30:55;;;;;;;18.25;10.32;;;;;;;14.54;40.66;102319.53;346578;28;1569;-62
2021/03/30 00:31:06;;;;;;;18.50;10.38;;;;;;;14.58;40.66;102318.50;346752;28;1130;-63
2021/03/30 00:31:17;;;;;;;19.70;10.10;;;;;;;14.61;41.32;102319.31;346767;28;1122;-64
2021/03/30 00:31:28;;;;;;;18.70;9.60;;;;;;;14.59;40.50;102322.03;346793;28;1167;-63
2021/03/30 00:31:40;;;;;;;17.00;9.38;;;;;;;14.60;40.14;102313.09;346728;28;1156;-63
2021/03/30 00:31:51;;;;;;;16.63;9.45;;;;;;;14.59;40.34;102319.38;346825;28;1105;-63
2021/03/30 00:32:02;;;;;;;16.60;9.70;;;;;;;14.57;39.93;102319.41;346791;28;1097;-64
2021/03/30 00:32:13;;;;;;;17.90;9.93;;;;;;;14.59;40.78;102316.72;346729;28;1151;-63
2021/03/30 00:32:24;;;;;;;18.52;9.95;;;;;;;14.60;40.45;102310.44;346832;28;1072;-64
2021/03/30 00:32:36;;;;;;;18.85;10.00;;;;;;;14.61;40.45;102319.31;346605;28;1081;-63
2021/03/30 00:32:47;;;;;;;18.42;9.98;;;;;;;14.56;40.77;102312.38;346826;28;1033;-63
2021/03/30 00:32:59;;;;;;;19.17;10.32;;;;;;;14.54;40.68;102321.34;346904;28;1062;-64
2021/03/30 00:33:10;;;;;;;18.35;10.00;;;;;;;14.51;39.86;102319.66;346785;28;1224;-63
2021/03/30 00:33:21;;;;;;;18.30;10.02;;;;;;;14.50;40.97;102322.38;346746;28;1192;-64
2021/03/30 00:33:32;;;;;;;19.90;10.35;;;;;;;14.47;40.02;102322.50;346714;28;1147;-62
2021/03/30 00:33:44;;;;;;;20.00;10.98;;;;;;;14.45;39.50;102324.34;345330;28;1086;-63
2021/03/30 00:34:12;;;;;;;19.55;10.32;;;;;;;14.44;41.22;102318.16;344196;28;33931;-66
2021/03/30 00:34:24;;;;;;;18.83;10.38;;;;;;;14.46;39.70;102315.44;345232;28;1002;-63
2021/03/30 00:34:35;;;;;;;18.20;10.45;;;;;;;14.44;40.58;102318.16;345262;28;1074;-64
2021/03/30 00:34:46;;;;;;;16.72;9.88;;;;;;;14.47;39.93;102318.03;345280;28;1154;-65
2021/03/30 00:34:57;;;;;;;18.30;9.77;;;;;;;14.46;39.62;102312.78;345350;28;1081;-64
2021/03/30 00:35:09;;;;;;;19.35;10.30;;;;;;;14.41;40.95;102316.50;345375;28;1062;-64
2021/03/30 00:35:20;;;;;;;19.77;10.50;;;;;;;14.44;40.34;102323.50;345237;28;1430;-64
2021/03/30 00:35:31;;;;;;;17.52;10.23;;;;;;;14.45;40.40;102324.34;345242;28;1194;-64
2021/03/30 00:35:42;;;;;;;17.36;10.26;;;;;;;14.46;40.69;102320.78;346283;28;1156;-63
2021/03/30 00:35:53;;;;;;;16.48;10.40;;;;;;;14.39;40.48;102321.00;346779;28;994;-64
2021/03/30 00:36:05;;;;;;;17.00;10.48;;;;;;;14.37;40.91;102311.34;346851;28;1021;-64
2021/03/30 00:36:16;;;;;;;16.92;10.32;;;;;;;14.38;40.23;102313.06;346645;28;1074;-65
2021/03/30 00:36:27;;;;;;;16.77;10.23;;;;;;;14.40;40.61;102320.06;346819;28;1137;-64
2021/03/30 00:36:38;;;;;;;17.40;10.13;;;;;;;14.44;40.89;102323.50;346721;28;1173;-65
2021/03/30 00:36:49;;;;;;;17.52;10.35;;;;;;;14.47;41.42;102317.19;346810;28;1105;-64
2021/03/30 00:37:01;;;;;;;18.80;10.45;;;;;;;14.47;40.87;102314.53;346823;28;1161;-65
2021/03/30 00:37:12;;;;;;;20.02;10.82;;;;;;;14.50;40.55;102317.06;347108;28;1748;-64
2021/03/30 00:37:23;;;;;;;20.30;10.50;;;;;;;14.49;41.29;102317.97;348143;28;1061;-64
2021/03/30 00:37:35;;;;;;;20.20;10.63;;;;;;;14.50;40.24;102317.06;346935;28;1503;-65
2021/03/30 00:37:46;;;;;;;19.77;10.82;;;;;;;14.50;41.39;102317.06;346788;28;1150;-64
2021/03/30 00:37:57;;;;;;;21.02;11.45;;;;;;;14.51;40.39;102318.81;346814;28;1299;-64
2021/03/30 00:38:09;;;;;;;18.67;11.02;;;;;;;14.50;40.64;102314.41;346712;28;1163;-64
2021/03/30 00:38:21;;;;;;;18.63;10.90;;;;;;;14.49;40.12;102320.63;346765;28;1108;-65
2021/03/30 00:38:32;;;;;;;18.35;10.38;;;;;;;14.50;41.18;102319.72;346733;28;1186;-64
2021/03/30 00:38:43;;;;;;;18.75;10.30;;;;;;;14.49;41.07;102315.31;346854;28;1030;-63
2021/03/30 00:38:55;;;;;;;19.27;10.55;;;;;;;14.52;41.00;102321.41;346823;28;1136;-64
2021/03/30 00:39:06;;;;;;;18.98;10.85;;;;;;;14.49;41.12;102315.31;346685;28;1195;-64
2021/03/30 00:39:17;;;;;;;18.67;10.60;;;;;;;14.50;41.14;102312.59;346793;28;1145;-64
2021/03/30 00:39:29;;;;;;;18.77;10.30;;;;;;;14.50;40.78;102322.38;346825;28;1229;-68
2021/03/30 00:39:40;;;;;;;19.20;10.27;;;;;;;14.49;41.19;102312.66;346767;28;1101;-71
2021/03/30 00:39:51;;;;;;;18.58;10.30;;;;;;;14.51;41.03;102318.81;346813;28;1077;-68
2021/03/30 00:40:07;;;;;;;18.05;10.43;;;;;;;14.50;40.78;102311.75;346571;28;1078;-66
2021/03/30 00:40:18;;;;;;;18.33;11.18;;;;;;;14.48;41.00;102313.59;344364;28;70913;-69
2021/03/30 00:40:29;;;;;;;18.52;11.40;;;;;;;14.43;41.02;102316.44;346759;28;1147;-68
2021/03/30 00:40:41;;;;;;;19.23;11.75;;;;;;;14.38;40.44;102313.97;346791;28;1172;-67
2021/03/30 00:40:52;;;;;;;19.73;11.80;;;;;;;14.36;40.70;102318.44;346812;28;1147;-69
2021/03/30 00:41:03;;;;;;;21.02;11.90;;;;;;;14.34;40.33;102319.44;346791;28;1289;-68
2021/03/30 00:41:14;;;;;;;22.13;11.88;;;;;;;14.37;40.05;102314.88;346787;28;1191;-66
2021/03/30 00:41:26;;;;;;;22.83;11.93;;;;;;;14.40;41.09;102320.06;346839;28;1074;-64
2021/03/30 00:41:41;;;;;;;23.20;12.30;;;;;;;14.42;41.04;102318.22;346683;28;1305;-66
2021/03/30 00:41:52;;;;;;;22.10;12.20;;;;;;;14.42;39.95;102315.56;344342;28;71888;-71
2021/03/30 00:42:04;;;;;;;22.10;11.80;;;;;;;14.42;39.84;102322.66;346773;28;1182;-69
2021/03/30 00:42:33;;;;;;;19.15;11.32;;;;;;;14.40;40.31;102317.41;345694;28;33287;-70
2021/03/30 00:42:44;;;;;;;19.90;11.57;;;;;;;14.41;40.18;102319.16;346745;28;1175;-65
2021/03/30 00:42:56;;;;;;;19.83;11.70;;;;;;;14.40;40.71;102316.56;346686;28;2150;-70
2021/03/30 00:43:26;;;;;;;23.17;12.55;;;;;;;14.41;40.26;102320.91;345628;28;33196;-67
2021/03/30 00:43:37;;;;;;;21.38;12.75;;;;;;;14.36;39.66;102321.09;346663;28;1057;-66
2021/03/30 00:43:48;;;;;;;20.40;12.30;;;;;;;14.34;41.21;102308.81;346589;28;1134;-67
2021/03/30 00:44:00;;;;;;;21.35;12.48;;;;;;;14.32;40.98;102318.63;346636;28;1961;-68
2021/03/30 00:44:14;;;;;;;21.33;11.98;;;;;;;14.34;40.05;102317.66;346702;28;1073;-66
2021/03/30 00:44:25;;;;;;;22.17;12.18;;;;;;;14.33;40.88;102315.91;345862;28;24096;-67
2021/03/30 00:44:36;;;;;;;23.02;12.45;;;;;;;14.35;40.72;102318.50;346648;28;1212;-69
2021/03/30 00:44:48;;;;;;;21.88;12.30;;;;;;;14.37;40.46;102311.34;346558;28;1086;-67
2021/03/30 00:45:00;;;;;;;22.23;12.30;;;;;;;14.38;40.88;102316.63;346665;28;2067;-66
2021/03/30 00:45:12;;;;;;;22.77;12.52;;;;;;;14.35;41.05;102319.38;346690;28;1057;-68
2021/03/30 00:45:24;;;;;;;23.75;12.35;;;;;;;14.34;40.90;102324.75;346694;28;1079;-68
2021/03/30 00:45:35;;;;;;;24.40;12.43;;;;;;;14.37;41.17;102321.97;346624;28;1101;-67
2021/03/30 00:45:46;;;;;;;23.38;12.25;;;;;;;14.38;40.29;102319.28;346571;28;1201;-71
2021/03/30 00:45:57;;;;;;;23.65;12.52;;;;;;;14.37;40.61;102312.22;346684;28;1157;-69
2021/03/30 00:46:16;;;;;;;22.70;12.35;;;;;;;14.38;40.73;102316.63;346701;28;1133;-67
2021/03/30 00:46:28;;;;;;;22.50;12.35;;;;;;;14.38;40.62;102316.63;344277;28;71469;-69
2021/03/30 00:46:43;;;;;;;22.98;12.20;;;;;;;14.41;40.21;102312.94;346597;28;1085;-70
2021/03/30 00:46:56;;;;;;;22.88;12.07;;;;;;;14.39;41.51;102315.66;344298;28;71637;-66
2021/03/30 00:47:07;;;;;;;22.65;12.15;;;;;;;14.40;40.18;102312.09;346799;28;1224;-66
2021/03/30 00:47:22;;;;;;;22.60;12.55;;;;;;;14.36;41.35;102310.47;346845;28;1093;-67
2021/03/30 00:47:34;;;;;;;23.15;12.25;;;;;;;14.37;41.07;102312.22;345063;28;49092;-69
2021/03/30 00:47:47;;;;;;;22.27;11.68;;;;;;;14.37;40.56;102314.00;347683;28;1804;-67
2021/03/30 00:47:59;;;;;;;22.33;11.75;;;;;;;14.37;40.89;102319.31;347317;28;1676;-67
2021/03/30 00:48:25;;;;;;;23.48;11.85;;;;;;;14.39;41.54;102315.66;346778;28;1189;-70
2021/03/30 00:48:36;;;;;;;20.13;12.00;;;;;;;14.39;40.56;102314.81;344357;28;71087;-67
2021/03/30 00:48:50;;;;;;;20.60;12.00;;;;;;;14.41;41.26;102312.94;346808;28;1062;-67
2021/03/30 00:49:01;;;;;;;21.60;12.27;;;;;;;14.40;40.04;102312.09;346003;28;24118;-69
2021/03/30 00:49:17;;;;;;;22.27;12.40;;;;;;;14.39;41.50;102315.66;346781;28;1142;-69
2021/03/30 00:49:32;;;;;;;21.96;12.56;;;;;;;14.36;40.48;102309.63;345218;28;47028;-67
2021/03/30 00:49:44;;;;;;;22.48;13.07;;;;;;;14.37;40.85;102312.22;345076;28;49574;-66
2021/03/30 00:49:55;;;;;;;22.35;13.07;;;;;;;14.33;40.90;102307.94;346747;28;2300;-69
2021/03/30 00:50:09;;;;;;;21.83;12.80;;;;;;;14.36;40.26;102312.28;346796;28;1164;-67
2021/03/30 00:50:23;;;;;;;23.25;12.63;;;;;;;14.39;40.15;102313.00;345835;28;25169;-67
2021/03/30 00:50:34;;;;;;;25.90;12.90;;;;;;;14.40;40.63;102312.09;346796;28;2008;-69
2021/03/30 00:50:46;;;;;;;25.30;12.70;;;;;;;14.41;40.87;102313.84;346711;28;1022;-65
2021/03/30 00:50:57;;;;;;;25.60;12.50;;;;;;;14.39;40.54;102314.81;346754;28;1228;-65
2021/03/30 00:51:08;;;;;;;24.85;12.38;;;;;;;14.40;40.76;102314.75;346817;28;1092;-68
2021/03/30 00:51:20;;;;;;;22.05;12.18;;;;;;;14.40;40.52;102311.25;346771;28;1061;-69
2021/03/30 00:51:32;;;;;;;22.17;12.40;;;;;;;14.41;41.56;102308.53;346807;28;1156;-68
2021/03/30 00:51:45;;;;;;;22.05;12.15;;;;;;;14.40;40.97;102312.09;346786;28;1256;-68
2021/03/30 00:51:56;;;;;;;21.15;12.10;;;;;;;14.40;40.28;102309.44;345980;28;24044;-66
2021/03/30 00:52:07;;;;;;;21.02;12.13;;;;;;;14.36;41.39;102310.47;346762;28;1073;-67
2021/03/30 00:52:20;;;;;;;21.30;12.20;;;;;;;14.34;41.15;102315.00;346664;28;1082;-70
2021/03/30 00:52:31;;;;;;;24.27;12.55;;;;;;;14.32;41.29;102308.00;346696;28;1140;-66
2021/03/30 00:52:43;;;;;;;26.40;13.05;;;;;;;14.32;41.42;102308.00;346661;28;1094;-68
2021/03/30 00:52:55;;;;;;;25.05;13.20;;;;;;;14.35;40.42;102308.72;346590;28;1136;-67
2021/03/30 00:53:06;;;;;;;25.83;13.07;;;;;;;14.34;40.35;102307.03;346595;28;1168;-66
2021/03/30 00:53:18;;;;;;;24.05;12.98;;;;;;;14.37;40.07;102306.00;346628;28;1154;-68
2021/03/30 00:53:29;;;;;;;23.45;12.68;;;;;;;14.33;40.03;102310.59;346682;28;1054;-67
2021/03/30 00:53:41;;;;;;;21.25;12.48;;;;;;;14.34;41.12;102309.69;346619;28;1240;-65
2021/03/30 00:53:52;;;;;;;21.55;12.80;;;;;;;14.33;40.36;102307.94;345295;28;1172;-68
2021/03/30 00:54:03;;;;;;;21.52;12.65;;;;;;;14.33;41.19;102307.94;345174;28;1147;-68
2021/03/30 00:54:15;;;;;;;21.75;12.35;;;;;;;14.32;40.98;102311.53;345271;28;1161;-65
2021/03/30 00:54:26;;;;;;;22.48;12.43;;;;;;;14.29;41.43;102305.44;345900;28;1061;-70
2021/03/30 00:54:38;;;;;;;22.25;12.90;;;;;;;14.29;40.96;102298.34;346662;28;1133;-67
2021/03/30 00:54:50;;;;;;;24.67;13.63;;;;;;;14.30;40.59;102310.72;346614;28;1185;-69
2021/03/30 00:55:20;;;;;;;24.20;13.63;;;;;;;14.29;40.58;102306.31;345589;28;33959;-65
2021/03/30 00:55:31;;;;;;;23.58;13.00;;;;;;;14.31;40.74;102309.78;346666;28;1119;-67
2021/03/30 00:55:42;;;;;;;22.67;12.75;;;;;;;14.32;40.41;102308.84;346738;28;1058;-68
2021/03/30 00:55:53;;;;;;;24.77;12.68;;;;;;;14.25;40.97;102302.91;346567;28;1090;-65
2021/03/30 00:56:05;;;;;;;23.45;12.30;;;;;;;14.23;40.96;102304.78;345276;28;1058;-69
2021/03/30 00:56:17;;;;;;;23.98;12.65;;;;;;;14.23;40.55;102302.13;345291;28;1290;-66
2021/03/30 00:56:28;;;;;;;22.98;12.56;;;;;;;14.26;41.52;102303.78;345283;28;1164;-66
2021/03/30 00:56:39;;;;;;;23.90;12.65;;;;;;;14.22;41.17;102308.34;345290;28;1197;-66
2021/03/30 00:56:50;;;;;;;23.58;12.50;;;;;;;14.22;40.79;102307.50;345188;28;2173;-68
2021/03/30 00:57:19;;;;;;;24.42;12.75;;;;;;;14.24;40.74;102305.63;345613;28;33247;-66
2021/03/30 00:57:31;;;;;;;24.75;12.82;;;;;;;14.24;40.53;102305.63;346709;28;1082;-64
2021/03/30 00:57:42;;;;;;;24.70;13.25;;;;;;;14.27;41.34;102305.50;346653;28;1073;-64
2021/03/30 00:57:53;;;;;;;24.48;13.60;;;;;;;14.28;40.38;102307.25;346565;28;1054;-66
2021/03/30 00:58:05;;;;;;;24.50;13.77;;;;;;;14.28;40.94;102299.28;346972;28;1740;-64
2021/03/30 00:58:16;;;;;;;24.75;13.75;;;;;;;14.31;41.63;102306.25;346787;28;1185;-65